sensor_id;sensor_type;location;lat;lon;timestamp;temperature;humidity
26589;DHT22;14235;48.532;8.722;2023-05-09T00:02:09;15.40;99.90
26589;DHT22;14235;48.532;8.722;2023-05-09T00:04:35;15.30;99.90
26589;DHT22;14235;48.532;8.722;2023-05-09T00:07:01;15.30;99.90
26589;DHT22;14235;48.532;8.722;2023-05-09T00:09:26;15.30;99.90
26589;DHT22;14235;48.532;8.722;2023-05-09T00:11:52;15.30;99.90
26589;DHT22;14235;48.532;8.722;2023-05-09T00:14:17;15.30;99.90
26589;DHT22;14235;48.532;8.722;2023-05-09T00:16:44;15.20;99.90
26589;DHT22;14235;48.532;8.722;2023-05-09T00:19:09;15.10;99.90
26589;DHT22;14235;48.532;8.722;2023-05-09T00:21:35;15.10;99.90
26589;DHT22;14235;48.532;8.722;2023-05-09T00:24:01;15.10;99.90
26589;DHT22;14235;48.532;8.722;2023-05-09T00:26:27;15.10;99.90
26589;DHT22;14235;48.532;8.722;2023-05-09T00:28:52;15.10;99.90
26589;DHT22;14235;48.532;8.722;2023-05-09T00:31:19;15.10;99.90
26589;DHT22;14235;48.532;8.722;2023-05-09T00:33:45;15.10;99.90
26589;DHT22;14235;48.532;8.722;2023-05-09T00:36:11;15.10;99.90
26589;DHT22;14235;48.532;8.722;2023-05-09T00:38:36;15.10;99.90
26589;DHT22;14235;48.532;8.722;2023-05-09T00:41:02;15.00;99.90
26589;DHT22;14235;48.532;8.722;2023-05-09T00:43:29;15.00;99.90
26589;DHT22;14235;48.532;8.722;2023-05-09T00:45:54;15.00;99.90
26589;DHT22;14235;48.532;8.722;2023-05-09T00:48:20;14.90;99.90
26589;DHT22;14235;48.532;8.722;2023-05-09T00:50:46;14.90;99.90
26589;DHT22;14235;48.532;8.722;2023-05-09T00:53:19;14.90;99.90
26589;DHT22;14235;48.532;8.722;2023-05-09T00:55:46;14.90;99.90
26589;DHT22;14235;48.532;8.722;2023-05-09T00:58:11;15.00;99.90
26589;DHT22;14235;48.532;8.722;2023-05-09T01:00:37;15.00;99.90
26589;DHT22;14235;48.532;8.722;2023-05-09T01:03:03;15.00;99.90
26589;DHT22;14235;48.532;8.722;2023-05-09T01:05:39;15.00;99.90
26589;DHT22;14235;48.532;8.722;2023-05-09T01:08:44;15.00;99.90
26589;DHT22;14235;48.532;8.722;2023-05-09T01:11:21;15.00;99.90
26589;DHT22;14235;48.532;8.722;2023-05-09T01:22:11;14.80;99.90
26589;DHT22;14235;48.532;8.722;2023-05-09T01:25:01;14.80;99.90
26589;DHT22;14235;48.532;8.722;2023-05-09T01:27:45;14.80;99.90
26589;DHT22;14235;48.532;8.722;2023-05-09T01:30:13;14.70;99.90
26589;DHT22;14235;48.532;8.722;2023-05-09T01:32:42;14.70;99.90
26589;DHT22;14235;48.532;8.722;2023-05-09T01:35:12;14.60;99.90
26589;DHT22;14235;48.532;8.722;2023-05-09T01:37:41;14.60;99.90
26589;DHT22;14235;48.532;8.722;2023-05-09T01:40:16;14.50;99.90
26589;DHT22;14235;48.532;8.722;2023-05-09T01:43:00;14.50;99.90
26589;DHT22;14235;48.532;8.722;2023-05-09T01:45:28;14.40;99.90
26589;DHT22;14235;48.532;8.722;2023-05-09T01:47:55;14.50;99.90
26589;DHT22;14235;48.532;8.722;2023-05-09T01:50:22;14.50;99.90
26589;DHT22;14235;48.532;8.722;2023-05-09T01:52:51;14.40;99.90
26589;DHT22;14235;48.532;8.722;2023-05-09T01:55:18;14.40;99.90
26589;DHT22;14235;48.532;8.722;2023-05-09T01:57:46;14.40;99.90
26589;DHT22;14235;48.532;8.722;2023-05-09T02:00:13;14.40;99.90
26589;DHT22;14235;48.532;8.722;2023-05-09T02:02:39;14.40;99.90
26589;DHT22;14235;48.532;8.722;2023-05-09T02:05:08;14.50;99.90
26589;DHT22;14235;48.532;8.722;2023-05-09T02:07:34;14.50;99.90
26589;DHT22;14235;48.532;8.722;2023-05-09T02:10:01;14.50;99.90
26589;DHT22;14235;48.532;8.722;2023-05-09T02:12:27;14.50;99.90
26589;DHT22;14235;48.532;8.722;2023-05-09T02:14:53;14.50;99.90
26589;DHT22;14235;48.532;8.722;2023-05-09T02:17:18;14.50;99.90
26589;DHT22;14235;48.532;8.722;2023-05-09T02:19:45;14.50;99.90
26589;DHT22;14235;48.532;8.722;2023-05-09T02:22:12;14.60;99.90
26589;DHT22;14235;48.532;8.722;2023-05-09T02:24:38;14.60;99.90
26589;DHT22;14235;48.532;8.722;2023-05-09T02:27:04;14.60;99.90
26589;DHT22;14235;48.532;8.722;2023-05-09T02:29:45;14.60;99.90
26589;DHT22;14235;48.532;8.722;2023-05-09T02:32:14;14.70;99.90
26589;DHT22;14235;48.532;8.722;2023-05-09T02:34:41;14.70;99.90
26589;DHT22;14235;48.532;8.722;2023-05-09T02:37:09;14.70;99.90
26589;DHT22;14235;48.532;8.722;2023-05-09T02:39:35;14.70;99.90
26589;DHT22;14235;48.532;8.722;2023-05-09T02:42:12;14.70;99.90
26589;DHT22;14235;48.532;8.722;2023-05-09T02:44:37;14.70;99.90
26589;DHT22;14235;48.532;8.722;2023-05-09T02:47:04;14.70;99.90
26589;DHT22;14235;48.532;8.722;2023-05-09T02:49:30;14.70;99.90
26589;DHT22;14235;48.532;8.722;2023-05-09T02:51:56;14.70;99.90
26589;DHT22;14235;48.532;8.722;2023-05-09T02:54:21;14.60;99.90
26589;DHT22;14235;48.532;8.722;2023-05-09T02:56:47;14.60;99.90
26589;DHT22;14235;48.532;8.722;2023-05-09T02:59:13;14.60;99.90
26589;DHT22;14235;48.532;8.722;2023-05-09T03:01:38;14.50;99.90
26589;DHT22;14235;48.532;8.722;2023-05-09T03:04:04;14.50;99.90
26589;DHT22;14235;48.532;8.722;2023-05-09T03:06:29;14.50;99.90
26589;DHT22;14235;48.532;8.722;2023-05-09T03:08:55;14.50;99.90
26589;DHT22;14235;48.532;8.722;2023-05-09T03:11:21;14.50;99.90
26589;DHT22;14235;48.532;8.722;2023-05-09T03:13:47;14.50;99.90
26589;DHT22;14235;48.532;8.722;2023-05-09T03:16:13;14.40;99.90
26589;DHT22;14235;48.532;8.722;2023-05-09T03:18:40;14.40;99.90
26589;DHT22;14235;48.532;8.722;2023-05-09T03:21:05;14.50;99.90
26589;DHT22;14235;48.532;8.722;2023-05-09T03:23:31;14.40;99.90
26589;DHT22;14235;48.532;8.722;2023-05-09T03:25:57;14.30;99.90
26589;DHT22;14235;48.532;8.722;2023-05-09T03:28:22;14.30;99.90
26589;DHT22;14235;48.532;8.722;2023-05-09T03:30:48;14.30;99.90
26589;DHT22;14235;48.532;8.722;2023-05-09T03:33:14;14.30;99.90
26589;DHT22;14235;48.532;8.722;2023-05-09T03:35:40;14.30;99.90
26589;DHT22;14235;48.532;8.722;2023-05-09T03:38:05;14.30;99.90
26589;DHT22;14235;48.532;8.722;2023-05-09T03:40:31;14.30;99.90
26589;DHT22;14235;48.532;8.722;2023-05-09T03:42:56;14.40;99.90
26589;DHT22;14235;48.532;8.722;2023-05-09T03:45:22;14.40;99.90
26589;DHT22;14235;48.532;8.722;2023-05-09T03:47:47;14.40;99.90
26589;DHT22;14235;48.532;8.722;2023-05-09T03:50:13;14.40;99.90
26589;DHT22;14235;48.532;8.722;2023-05-09T03:52:38;14.40;99.90
26589;DHT22;14235;48.532;8.722;2023-05-09T03:55:04;14.40;99.90
26589;DHT22;14235;48.532;8.722;2023-05-09T03:57:30;14.40;99.90
26589;DHT22;14235;48.532;8.722;2023-05-09T03:59:56;14.40;99.90
26589;DHT22;14235;48.532;8.722;2023-05-09T04:02:22;14.30;99.90
26589;DHT22;14235;48.532;8.722;2023-05-09T04:04:48;14.30;99.90
26589;DHT22;14235;48.532;8.722;2023-05-09T04:07:14;14.30;99.90
26589;DHT22;14235;48.532;8.722;2023-05-09T04:09:40;14.30;99.90
26589;DHT22;14235;48.532;8.722;2023-05-09T04:12:07;14.40;99.90
26589;DHT22;14235;48.532;8.722;2023-05-09T04:14:33;14.40;99.90
26589;DHT22;14235;48.532;8.722;2023-05-09T04:16:58;14.40;99.90
26589;DHT22;14235;48.532;8.722;2023-05-09T04:19:24;14.40;99.90
26589;DHT22;14235;48.532;8.722;2023-05-09T04:21:49;14.40;99.90
26589;DHT22;14235;48.532;8.722;2023-05-09T04:24:15;14.40;99.90
26589;DHT22;14235;48.532;8.722;2023-05-09T04:26:41;14.40;99.90
26589;DHT22;14235;48.532;8.722;2023-05-09T04:29:06;14.40;99.90
26589;DHT22;14235;48.532;8.722;2023-05-09T04:31:32;14.40;99.90
26589;DHT22;14235;48.532;8.722;2023-05-09T04:33:57;14.40;99.90
26589;DHT22;14235;48.532;8.722;2023-05-09T04:36:23;14.40;99.90
26589;DHT22;14235;48.532;8.722;2023-05-09T04:38:49;14.40;99.90
26589;DHT22;14235;48.532;8.722;2023-05-09T04:41:14;14.40;99.90
26589;DHT22;14235;48.532;8.722;2023-05-09T04:43:40;14.40;99.90
26589;DHT22;14235;48.532;8.722;2023-05-09T04:46:06;14.50;99.90
26589;DHT22;14235;48.532;8.722;2023-05-09T04:48:34;14.40;99.90
26589;DHT22;14235;48.532;8.722;2023-05-09T04:50:59;14.50;99.90
26589;DHT22;14235;48.532;8.722;2023-05-09T04:53:25;14.40;99.90
26589;DHT22;14235;48.532;8.722;2023-05-09T04:55:52;14.40;99.90
26589;DHT22;14235;48.532;8.722;2023-05-09T04:58:18;14.30;99.90
26589;DHT22;14235;48.532;8.722;2023-05-09T05:00:44;14.30;99.90
26589;DHT22;14235;48.532;8.722;2023-05-09T05:03:09;14.30;99.90
26589;DHT22;14235;48.532;8.722;2023-05-09T05:05:35;14.30;99.90
26589;DHT22;14235;48.532;8.722;2023-05-09T05:08:01;14.30;99.90
26589;DHT22;14235;48.532;8.722;2023-05-09T05:10:26;14.30;99.90
26589;DHT22;14235;48.532;8.722;2023-05-09T05:12:52;14.20;99.90
26589;DHT22;14235;48.532;8.722;2023-05-09T05:15:17;14.20;99.90
26589;DHT22;14235;48.532;8.722;2023-05-09T05:17:44;14.20;99.90
26589;DHT22;14235;48.532;8.722;2023-05-09T05:20:09;14.20;99.90
26589;DHT22;14235;48.532;8.722;2023-05-09T05:22:35;14.20;99.90
26589;DHT22;14235;48.532;8.722;2023-05-09T05:25:02;14.20;99.90
26589;DHT22;14235;48.532;8.722;2023-05-09T05:27:28;14.10;99.90
26589;DHT22;14235;48.532;8.722;2023-05-09T05:29:54;14.20;99.90
26589;DHT22;14235;48.532;8.722;2023-05-09T05:32:19;14.00;99.90
26589;DHT22;14235;48.532;8.722;2023-05-09T05:34:45;14.10;99.90
26589;DHT22;14235;48.532;8.722;2023-05-09T05:37:11;14.10;99.90
26589;DHT22;14235;48.532;8.722;2023-05-09T05:39:36;14.10;99.90
26589;DHT22;14235;48.532;8.722;2023-05-09T05:42:02;14.20;99.90
26589;DHT22;14235;48.532;8.722;2023-05-09T05:44:27;14.20;99.90
26589;DHT22;14235;48.532;8.722;2023-05-09T05:46:53;14.20;99.90
26589;DHT22;14235;48.532;8.722;2023-05-09T05:49:18;14.20;99.90
26589;DHT22;14235;48.532;8.722;2023-05-09T05:51:44;14.30;99.90
26589;DHT22;14235;48.532;8.722;2023-05-09T05:54:10;14.30;99.90
26589;DHT22;14235;48.532;8.722;2023-05-09T05:56:35;14.40;99.90
26589;DHT22;14235;48.532;8.722;2023-05-09T05:59:01;14.40;99.90
26589;DHT22;14235;48.532;8.722;2023-05-09T06:01:26;14.40;99.90
26589;DHT22;14235;48.532;8.722;2023-05-09T06:03:52;14.40;99.90
26589;DHT22;14235;48.532;8.722;2023-05-09T06:06:20;14.50;99.90
26589;DHT22;14235;48.532;8.722;2023-05-09T06:08:47;14.60;99.90
26589;DHT22;14235;48.532;8.722;2023-05-09T06:11:15;14.60;99.90
26589;DHT22;14235;48.532;8.722;2023-05-09T06:13:41;14.60;99.90
26589;DHT22;14235;48.532;8.722;2023-05-09T06:16:07;14.70;99.90
26589;DHT22;14235;48.532;8.722;2023-05-09T06:18:34;14.70;99.90
26589;DHT22;14235;48.532;8.722;2023-05-09T06:21:00;14.80;99.90
26589;DHT22;14235;48.532;8.722;2023-05-09T06:23:25;14.70;99.90
26589;DHT22;14235;48.532;8.722;2023-05-09T06:25:51;14.80;99.90
26589;DHT22;14235;48.532;8.722;2023-05-09T06:28:16;14.70;99.90
26589;DHT22;14235;48.532;8.722;2023-05-09T06:30:42;14.80;99.90
26589;DHT22;14235;48.532;8.722;2023-05-09T06:33:07;14.90;99.90
26589;DHT22;14235;48.532;8.722;2023-05-09T06:35:33;14.80;99.90
26589;DHT22;14235;48.532;8.722;2023-05-09T06:37:58;14.90;99.90
26589;DHT22;14235;48.532;8.722;2023-05-09T06:40:24;14.80;99.90
26589;DHT22;14235;48.532;8.722;2023-05-09T06:42:49;14.90;99.90
26589;DHT22;14235;48.532;8.722;2023-05-09T06:45:15;15.00;99.90
26589;DHT22;14235;48.532;8.722;2023-05-09T06:47:41;15.00;99.90
26589;DHT22;14235;48.532;8.722;2023-05-09T06:50:07;15.00;99.90
26589;DHT22;14235;48.532;8.722;2023-05-09T06:52:32;15.10;99.90
26589;DHT22;14235;48.532;8.722;2023-05-09T06:54:58;15.00;99.90
26589;DHT22;14235;48.532;8.722;2023-05-09T06:57:24;15.20;99.90
26589;DHT22;14235;48.532;8.722;2023-05-09T06:59:49;15.20;99.90
26589;DHT22;14235;48.532;8.722;2023-05-09T07:02:15;15.30;99.90
26589;DHT22;14235;48.532;8.722;2023-05-09T07:04:40;15.20;99.90
26589;DHT22;14235;48.532;8.722;2023-05-09T07:07:06;15.30;99.90
26589;DHT22;14235;48.532;8.722;2023-05-09T07:09:32;15.30;99.90
26589;DHT22;14235;48.532;8.722;2023-05-09T07:11:59;15.40;99.90
26589;DHT22;14235;48.532;8.722;2023-05-09T07:14:24;15.40;99.90
26589;DHT22;14235;48.532;8.722;2023-05-09T07:16:50;15.40;99.90
26589;DHT22;14235;48.532;8.722;2023-05-09T07:19:15;15.40;99.90
26589;DHT22;14235;48.532;8.722;2023-05-09T07:21:41;15.40;99.90
26589;DHT22;14235;48.532;8.722;2023-05-09T07:24:07;15.50;99.90
26589;DHT22;14235;48.532;8.722;2023-05-09T07:26:34;15.50;99.90
26589;DHT22;14235;48.532;8.722;2023-05-09T07:29:00;15.50;99.90
26589;DHT22;14235;48.532;8.722;2023-05-09T07:31:26;15.50;99.90
26589;DHT22;14235;48.532;8.722;2023-05-09T07:33:51;15.50;99.90
26589;DHT22;14235;48.532;8.722;2023-05-09T07:36:17;15.50;99.90
26589;DHT22;14235;48.532;8.722;2023-05-09T07:38:42;15.60;99.90
26589;DHT22;14235;48.532;8.722;2023-05-09T07:41:08;15.60;99.90
26589;DHT22;14235;48.532;8.722;2023-05-09T07:43:33;15.60;99.90
26589;DHT22;14235;48.532;8.722;2023-05-09T07:45:59;15.60;99.90
26589;DHT22;14235;48.532;8.722;2023-05-09T07:48:25;15.70;99.90
26589;DHT22;14235;48.532;8.722;2023-05-09T07:50:50;15.60;99.90
26589;DHT22;14235;48.532;8.722;2023-05-09T07:53:16;15.70;99.90
26589;DHT22;14235;48.532;8.722;2023-05-09T07:55:41;15.60;99.90
26589;DHT22;14235;48.532;8.722;2023-05-09T07:58:09;15.70;99.90
26589;DHT22;14235;48.532;8.722;2023-05-09T08:00:35;15.70;99.90
26589;DHT22;14235;48.532;8.722;2023-05-09T08:03:00;15.70;99.90
26589;DHT22;14235;48.532;8.722;2023-05-09T08:05:26;15.70;99.90
26589;DHT22;14235;48.532;8.722;2023-05-09T08:07:51;15.70;99.90
26589;DHT22;14235;48.532;8.722;2023-05-09T08:10:17;15.80;99.90
26589;DHT22;14235;48.532;8.722;2023-05-09T08:12:42;15.80;99.90
26589;DHT22;14235;48.532;8.722;2023-05-09T08:15:08;15.80;99.90
26589;DHT22;14235;48.532;8.722;2023-05-09T08:17:34;15.90;99.90
26589;DHT22;14235;48.532;8.722;2023-05-09T08:20:00;15.90;99.90
26589;DHT22;14235;48.532;8.722;2023-05-09T08:22:25;16.00;99.90
26589;DHT22;14235;48.532;8.722;2023-05-09T08:24:51;15.90;99.90
26589;DHT22;14235;48.532;8.722;2023-05-09T08:27:16;16.00;99.90
26589;DHT22;14235;48.532;8.722;2023-05-09T08:29:42;16.00;99.90
26589;DHT22;14235;48.532;8.722;2023-05-09T08:32:08;15.90;99.90
26589;DHT22;14235;48.532;8.722;2023-05-09T08:34:34;16.00;99.90
26589;DHT22;14235;48.532;8.722;2023-05-09T08:37:01;16.00;99.90
26589;DHT22;14235;48.532;8.722;2023-05-09T08:39:27;16.10;99.90
26589;DHT22;14235;48.532;8.722;2023-05-09T08:41:57;16.00;99.90
26589;DHT22;14235;48.532;8.722;2023-05-09T08:44:23;16.00;99.90
26589;DHT22;14235;48.532;8.722;2023-05-09T08:46:51;16.10;99.90
26589;DHT22;14235;48.532;8.722;2023-05-09T08:49:19;16.20;99.90
26589;DHT22;14235;48.532;8.722;2023-05-09T08:51:46;16.20;99.90
26589;DHT22;14235;48.532;8.722;2023-05-09T08:54:13;16.20;99.90
26589;DHT22;14235;48.532;8.722;2023-05-09T08:56:39;16.30;99.90
26589;DHT22;14235;48.532;8.722;2023-05-09T08:59:05;16.30;99.90
26589;DHT22;14235;48.532;8.722;2023-05-09T09:01:32;16.40;99.90
26589;DHT22;14235;48.532;8.722;2023-05-09T09:03:58;16.50;99.90
26589;DHT22;14235;48.532;8.722;2023-05-09T09:06:25;16.50;99.90
26589;DHT22;14235;48.532;8.722;2023-05-09T09:08:53;16.60;99.90
26589;DHT22;14235;48.532;8.722;2023-05-09T09:11:20;16.60;99.90
26589;DHT22;14235;48.532;8.722;2023-05-09T09:13:50;16.60;99.90
26589;DHT22;14235;48.532;8.722;2023-05-09T09:16:19;16.70;99.90
26589;DHT22;14235;48.532;8.722;2023-05-09T09:18:45;16.70;99.90
26589;DHT22;14235;48.532;8.722;2023-05-09T09:21:11;16.80;99.90
26589;DHT22;14235;48.532;8.722;2023-05-09T09:23:41;16.80;99.90
26589;DHT22;14235;48.532;8.722;2023-05-09T09:26:07;16.80;99.90
26589;DHT22;14235;48.532;8.722;2023-05-09T09:28:34;16.90;99.90
26589;DHT22;14235;48.532;8.722;2023-05-09T09:31:00;16.90;99.90
26589;DHT22;14235;48.532;8.722;2023-05-09T09:33:27;16.90;99.90
26589;DHT22;14235;48.532;8.722;2023-05-09T09:35:54;16.90;99.90
26589;DHT22;14235;48.532;8.722;2023-05-09T09:38:21;16.90;99.90
26589;DHT22;14235;48.532;8.722;2023-05-09T09:43:16;17.00;99.90
26589;DHT22;14235;48.532;8.722;2023-05-09T09:45:42;17.00;99.90
26589;DHT22;14235;48.532;8.722;2023-05-09T09:48:08;17.00;99.90
26589;DHT22;14235;48.532;8.722;2023-05-09T09:50:33;17.00;99.90
26589;DHT22;14235;48.532;8.722;2023-05-09T09:52:59;17.10;99.90
26589;DHT22;14235;48.532;8.722;2023-05-09T09:55:25;17.10;99.90
26589;DHT22;14235;48.532;8.722;2023-05-09T09:57:51;17.10;99.90
26589;DHT22;14235;48.532;8.722;2023-05-09T10:00:19;17.10;99.90
26589;DHT22;14235;48.532;8.722;2023-05-09T10:02:54;17.20;99.90
26589;DHT22;14235;48.532;8.722;2023-05-09T10:05:21;17.10;99.90
26589;DHT22;14235;48.532;8.722;2023-05-09T10:07:59;17.20;99.90
26589;DHT22;14235;48.532;8.722;2023-05-09T10:10:35;17.20;99.90
26589;DHT22;14235;48.532;8.722;2023-05-09T10:13:03;17.30;99.90
26589;DHT22;14235;48.532;8.722;2023-05-09T10:15:31;17.20;99.90
26589;DHT22;14235;48.532;8.722;2023-05-09T10:17:58;17.30;99.90
26589;DHT22;14235;48.532;8.722;2023-05-09T10:20:27;17.30;99.90
26589;DHT22;14235;48.532;8.722;2023-05-09T10:22:58;17.50;99.90
26589;DHT22;14235;48.532;8.722;2023-05-09T10:25:37;17.50;99.90
26589;DHT22;14235;48.532;8.722;2023-05-09T10:28:11;17.50;99.90
26589;DHT22;14235;48.532;8.722;2023-05-09T10:30:55;17.60;99.90
26589;DHT22;14235;48.532;8.722;2023-05-09T10:33:29;17.60;99.90
26589;DHT22;14235;48.532;8.722;2023-05-09T10:35:57;17.70;99.90
26589;DHT22;14235;48.532;8.722;2023-05-09T10:38:24;17.70;99.90
26589;DHT22;14235;48.532;8.722;2023-05-09T10:40:49;17.80;99.90
26589;DHT22;14235;48.532;8.722;2023-05-09T10:43:17;17.80;99.90
26589;DHT22;14235;48.532;8.722;2023-05-09T10:45:44;17.80;99.90
26589;DHT22;14235;48.532;8.722;2023-05-09T10:48:10;17.90;99.90
26589;DHT22;14235;48.532;8.722;2023-05-09T10:50:37;17.90;99.90
26589;DHT22;14235;48.532;8.722;2023-05-09T10:55:52;18.10;99.90
26589;DHT22;14235;48.532;8.722;2023-05-09T11:00:50;18.10;99.90
26589;DHT22;14235;48.532;8.722;2023-05-09T11:03:16;18.20;99.90
26589;DHT22;14235;48.532;8.722;2023-05-09T11:05:46;18.20;99.90
26589;DHT22;14235;48.532;8.722;2023-05-09T11:08:26;18.30;99.90
26589;DHT22;14235;48.532;8.722;2023-05-09T11:10:54;18.30;99.90
26589;DHT22;14235;48.532;8.722;2023-05-09T11:13:21;18.40;99.90
26589;DHT22;14235;48.532;8.722;2023-05-09T11:18:18;18.50;99.90
26589;DHT22;14235;48.532;8.722;2023-05-09T11:20:48;18.60;99.90
26589;DHT22;14235;48.532;8.722;2023-05-09T11:23:21;18.60;99.90
26589;DHT22;14235;48.532;8.722;2023-05-09T11:25:49;18.60;99.90
26589;DHT22;14235;48.532;8.722;2023-05-09T11:28:26;18.60;99.90
26589;DHT22;14235;48.532;8.722;2023-05-09T11:30:52;18.60;99.90
26589;DHT22;14235;48.532;8.722;2023-05-09T11:33:26;18.70;99.90
26589;DHT22;14235;48.532;8.722;2023-05-09T11:36:18;18.70;99.90
26589;DHT22;14235;48.532;8.722;2023-05-09T11:38:45;18.70;99.90
26589;DHT22;14235;48.532;8.722;2023-05-09T11:41:11;18.80;99.90
26589;DHT22;14235;48.532;8.722;2023-05-09T11:43:38;18.70;99.90
26589;DHT22;14235;48.532;8.722;2023-05-09T11:46:04;18.80;99.90
26589;DHT22;14235;48.532;8.722;2023-05-09T11:48:36;18.90;99.90
26589;DHT22;14235;48.532;8.722;2023-05-09T11:51:02;18.90;99.90
26589;DHT22;14235;48.532;8.722;2023-05-09T11:53:28;19.00;99.90
26589;DHT22;14235;48.532;8.722;2023-05-09T11:55:54;19.10;99.90
26589;DHT22;14235;48.532;8.722;2023-05-09T11:58:19;19.10;99.90
26589;DHT22;14235;48.532;8.722;2023-05-09T12:00:45;19.20;99.90
26589;DHT22;14235;48.532;8.722;2023-05-09T12:03:11;19.20;99.90
26589;DHT22;14235;48.532;8.722;2023-05-09T12:05:37;19.20;99.90
26589;DHT22;14235;48.532;8.722;2023-05-09T12:08:05;19.20;99.90
26589;DHT22;14235;48.532;8.722;2023-05-09T12:10:32;19.30;99.90
26589;DHT22;14235;48.532;8.722;2023-05-09T12:13:00;19.40;99.90
26589;DHT22;14235;48.532;8.722;2023-05-09T12:15:26;19.40;99.90
26589;DHT22;14235;48.532;8.722;2023-05-09T12:18:03;19.40;99.90
26589;DHT22;14235;48.532;8.722;2023-05-09T12:20:45;19.50;99.90
26589;DHT22;14235;48.532;8.722;2023-05-09T12:23:12;19.50;99.90
26589;DHT22;14235;48.532;8.722;2023-05-09T12:25:45;19.50;99.90
26589;DHT22;14235;48.532;8.722;2023-05-09T12:28:11;19.50;99.90
26589;DHT22;14235;48.532;8.722;2023-05-09T12:30:37;19.60;99.90
26589;DHT22;14235;48.532;8.722;2023-05-09T12:33:03;19.70;99.90
26589;DHT22;14235;48.532;8.722;2023-05-09T12:35:29;19.70;99.90
26589;DHT22;14235;48.532;8.722;2023-05-09T12:37:57;19.70;99.90
26589;DHT22;14235;48.532;8.722;2023-05-09T12:40:23;19.70;99.90
26589;DHT22;14235;48.532;8.722;2023-05-09T12:42:48;19.70;99.90
26589;DHT22;14235;48.532;8.722;2023-05-09T12:45:14;19.80;99.90
26589;DHT22;14235;48.532;8.722;2023-05-09T12:47:40;19.80;99.90
26589;DHT22;14235;48.532;8.722;2023-05-09T12:50:10;19.80;99.90
26589;DHT22;14235;48.532;8.722;2023-05-09T12:52:38;19.90;99.90
26589;DHT22;14235;48.532;8.722;2023-05-09T12:55:09;19.90;99.90
26589;DHT22;14235;48.532;8.722;2023-05-09T12:57:36;19.90;99.90
26589;DHT22;14235;48.532;8.722;2023-05-09T13:00:03;20.00;99.90
26589;DHT22;14235;48.532;8.722;2023-05-09T13:02:38;20.00;99.90
26589;DHT22;14235;48.532;8.722;2023-05-09T13:05:13;20.00;99.90
26589;DHT22;14235;48.532;8.722;2023-05-09T13:08:00;20.00;99.90
26589;DHT22;14235;48.532;8.722;2023-05-09T13:12:53;19.90;99.90
26589;DHT22;14235;48.532;8.722;2023-05-09T13:15:21;19.90;99.90
26589;DHT22;14235;48.532;8.722;2023-05-09T13:17:50;19.80;99.90
26589;DHT22;14235;48.532;8.722;2023-05-09T13:20:17;19.80;99.90
26589;DHT22;14235;48.532;8.722;2023-05-09T13:22:43;19.80;99.90
26589;DHT22;14235;48.532;8.722;2023-05-09T13:25:10;19.80;99.90
26589;DHT22;14235;48.532;8.722;2023-05-09T13:27:35;19.80;99.90
26589;DHT22;14235;48.532;8.722;2023-05-09T13:30:02;19.70;99.90
26589;DHT22;14235;48.532;8.722;2023-05-09T13:32:28;19.70;99.90
26589;DHT22;14235;48.532;8.722;2023-05-09T13:34:53;19.60;99.90
26589;DHT22;14235;48.532;8.722;2023-05-09T13:37:19;19.60;99.90
26589;DHT22;14235;48.532;8.722;2023-05-09T13:39:46;19.50;99.90
26589;DHT22;14235;48.532;8.722;2023-05-09T13:42:12;19.40;99.90
26589;DHT22;14235;48.532;8.722;2023-05-09T13:44:37;19.30;99.90
26589;DHT22;14235;48.532;8.722;2023-05-09T13:47:03;19.20;99.90
26589;DHT22;14235;48.532;8.722;2023-05-09T13:49:28;19.20;99.90
26589;DHT22;14235;48.532;8.722;2023-05-09T13:51:54;19.10;99.90
26589;DHT22;14235;48.532;8.722;2023-05-09T13:54:20;19.20;99.90
26589;DHT22;14235;48.532;8.722;2023-05-09T13:56:47;19.20;99.90
26589;DHT22;14235;48.532;8.722;2023-05-09T13:59:13;19.30;99.90
26589;DHT22;14235;48.532;8.722;2023-05-09T14:01:39;19.30;99.90
26589;DHT22;14235;48.532;8.722;2023-05-09T14:04:05;19.30;99.90
26589;DHT22;14235;48.532;8.722;2023-05-09T14:06:31;19.30;99.90
26589;DHT22;14235;48.532;8.722;2023-05-09T14:08:57;19.40;99.90
26589;DHT22;14235;48.532;8.722;2023-05-09T14:11:23;19.40;99.90
26589;DHT22;14235;48.532;8.722;2023-05-09T14:13:50;19.40;99.90
26589;DHT22;14235;48.532;8.722;2023-05-09T14:16:20;19.50;99.90
26589;DHT22;14235;48.532;8.722;2023-05-09T14:18:46;19.50;99.90
26589;DHT22;14235;48.532;8.722;2023-05-09T14:21:12;19.50;99.90
26589;DHT22;14235;48.532;8.722;2023-05-09T14:23:38;19.50;99.90
26589;DHT22;14235;48.532;8.722;2023-05-09T14:26:04;19.50;99.90
26589;DHT22;14235;48.532;8.722;2023-05-09T14:28:29;19.50;99.90
26589;DHT22;14235;48.532;8.722;2023-05-09T14:30:55;19.60;99.90
26589;DHT22;14235;48.532;8.722;2023-05-09T14:33:22;19.50;99.90
26589;DHT22;14235;48.532;8.722;2023-05-09T14:35:48;19.50;99.90
26589;DHT22;14235;48.532;8.722;2023-05-09T14:38:14;19.60;99.90
26589;DHT22;14235;48.532;8.722;2023-05-09T14:40:39;19.50;99.90
26589;DHT22;14235;48.532;8.722;2023-05-09T14:43:05;19.50;99.90
26589;DHT22;14235;48.532;8.722;2023-05-09T14:45:32;19.50;99.90
26589;DHT22;14235;48.532;8.722;2023-05-09T14:48:00;19.50;99.90
26589;DHT22;14235;48.532;8.722;2023-05-09T14:50:27;19.50;99.90
26589;DHT22;14235;48.532;8.722;2023-05-09T14:52:53;19.50;99.90
26589;DHT22;14235;48.532;8.722;2023-05-09T14:55:19;19.50;99.90
26589;DHT22;14235;48.532;8.722;2023-05-09T14:57:48;19.50;99.90
26589;DHT22;14235;48.532;8.722;2023-05-09T15:00:14;19.50;99.90
26589;DHT22;14235;48.532;8.722;2023-05-09T15:02:41;19.50;99.90
26589;DHT22;14235;48.532;8.722;2023-05-09T15:05:07;19.50;99.90
26589;DHT22;14235;48.532;8.722;2023-05-09T15:07:33;19.40;99.90
26589;DHT22;14235;48.532;8.722;2023-05-09T15:09:58;19.40;99.90
26589;DHT22;14235;48.532;8.722;2023-05-09T15:12:24;19.40;99.90
26589;DHT22;14235;48.532;8.722;2023-05-09T15:14:50;19.40;99.90
26589;DHT22;14235;48.532;8.722;2023-05-09T15:17:18;19.40;99.90
26589;DHT22;14235;48.532;8.722;2023-05-09T15:19:44;19.30;99.90
26589;DHT22;14235;48.532;8.722;2023-05-09T15:22:10;19.30;99.90
26589;DHT22;14235;48.532;8.722;2023-05-09T15:24:35;19.30;99.90
26589;DHT22;14235;48.532;8.722;2023-05-09T15:27:01;19.20;99.90
26589;DHT22;14235;48.532;8.722;2023-05-09T15:29:26;19.20;99.90
26589;DHT22;14235;48.532;8.722;2023-05-09T15:31:53;19.20;99.90
26589;DHT22;14235;48.532;8.722;2023-05-09T15:34:20;19.10;99.90
26589;DHT22;14235;48.532;8.722;2023-05-09T15:36:47;19.10;99.90
26589;DHT22;14235;48.532;8.722;2023-05-09T15:39:13;19.10;99.90
26589;DHT22;14235;48.532;8.722;2023-05-09T15:41:39;19.10;99.90
26589;DHT22;14235;48.532;8.722;2023-05-09T15:44:04;19.00;99.90
26589;DHT22;14235;48.532;8.722;2023-05-09T15:46:30;19.10;99.90
26589;DHT22;14235;48.532;8.722;2023-05-09T15:48:56;19.00;99.90
26589;DHT22;14235;48.532;8.722;2023-05-09T15:51:22;19.10;99.90